Celeryville, Ohio
Current Conditions -  °F | °C
As of 3:52 PM on Tuesday 25 Nov 2014 (Local Time) from KMFD Reporting Station
Overcast Overcast  
Wind Chill: 25°   Ceiling: 1600
Heat Index: 33°   Visibility: 10mi
Dew Point: 27°   Wind: 9mph
Humidity: 78%   Direction: 260°W
Pressure: 30.09"   Gusts: 18mph
Location:  41.0768°N, 82.7214°W
Report Text: KMFD 252052Z 26008G16KT 10SM OVC016 01/M03 A3009 RMK AO2 SLP200 T00061028 53017
Loading
Personal Weather Stations






























Interactive Weather Map New forecast layout! Learn more

10-Day Weather Forecast

Advertisements
Track Severe Weather on mobile